sensor_id;sensor_type;location;lat;lon;timestamp;pressure;altitude;pressure_sealevel;temperature;humidity
12073;BME280;6098;49.004;8.372;2023-05-18T00:09:05;101063.24;;;11.30;67.34
12073;BME280;6098;49.004;8.372;2023-05-18T00:23:54;101048.41;;;11.10;67.53
12073;BME280;6098;49.004;8.372;2023-05-18T00:38:46;101046.41;;;11.02;67.05
12073;BME280;6098;49.004;8.372;2023-05-18T00:53:37;101045.88;;;10.89;67.27
12073;BME280;6098;49.004;8.372;2023-05-18T01:08:33;101048.25;;;10.70;67.66
12073;BME280;6098;49.004;8.372;2023-05-18T01:38:37;101054.24;;;10.13;68.77
12073;BME280;6098;49.004;8.372;2023-05-18T01:53:37;101039.39;;;10.06;67.02
12073;BME280;6098;49.004;8.372;2023-05-18T02:08:29;101029.43;;;9.99;66.00
12073;BME280;6098;49.004;8.372;2023-05-18T02:23:21;101037.98;;;9.92;65.92
12073;BME280;6098;49.004;8.372;2023-05-18T02:38:14;101030.31;;;9.82;65.79
12073;BME280;6098;49.004;8.372;2023-05-18T02:53:05;101027.82;;;9.75;66.16
12073;BME280;6098;49.004;8.372;2023-05-18T03:07:56;101020.92;;;9.52;66.57
12073;BME280;6098;49.004;8.372;2023-05-18T03:22:48;101032.88;;;9.32;67.67
12073;BME280;6098;49.004;8.372;2023-05-18T03:37:38;101034.47;;;9.20;68.35
12073;BME280;6098;49.004;8.372;2023-05-18T03:52:31;101038.00;;;9.20;69.06
12073;BME280;6098;49.004;8.372;2023-05-18T04:07:22;101046.31;;;9.02;69.56
12073;BME280;6098;49.004;8.372;2023-05-18T04:22:14;101069.88;;;8.93;70.11
12073;BME280;6098;49.004;8.372;2023-05-18T04:37:06;101084.18;;;9.04;70.00
12073;BME280;6098;49.004;8.372;2023-05-18T04:51:58;101091.02;;;9.14;69.63
12073;BME280;6098;49.004;8.372;2023-05-18T05:06:49;101088.66;;;9.22;70.22
12073;BME280;6098;49.004;8.372;2023-05-18T05:21:44;101095.16;;;9.46;69.06
12073;BME280;6098;49.004;8.372;2023-05-18T05:36:36;101090.52;;;9.75;68.18
12073;BME280;6098;49.004;8.372;2023-05-18T05:51:28;101098.49;;;10.08;66.07
12073;BME280;6098;49.004;8.372;2023-05-18T06:06:20;101098.72;;;10.51;63.06
12073;BME280;6098;49.004;8.372;2023-05-18T06:21:11;101098.92;;;10.91;60.68
12073;BME280;6098;49.004;8.372;2023-05-18T06:36:04;101104.06;;;11.26;59.02
12073;BME280;6098;49.004;8.372;2023-05-18T06:50:58;101106.73;;;11.69;57.45
12073;BME280;6098;49.004;8.372;2023-05-18T07:05:51;101104.73;;;11.89;56.10
12073;BME280;6098;49.004;8.372;2023-05-18T07:20:43;101113.50;;;12.19;55.80
12073;BME280;6098;49.004;8.372;2023-05-18T07:35:35;101101.23;;;12.65;55.25
12073;BME280;6098;49.004;8.372;2023-05-18T07:50:29;101090.72;;;13.10;54.74
12073;BME280;6098;49.004;8.372;2023-05-18T08:05:21;101078.28;;;13.45;53.08
12073;BME280;6098;49.004;8.372;2023-05-18T08:20:14;101080.91;;;13.78;52.92
12073;BME280;6098;49.004;8.372;2023-05-18T08:35:08;101081.37;;;13.99;52.52
12073;BME280;6098;49.004;8.372;2023-05-18T08:50:01;101063.98;;;14.43;52.47
12073;BME280;6098;49.004;8.372;2023-05-18T09:04:53;101052.78;;;14.74;51.78
12073;BME280;6098;49.004;8.372;2023-05-18T09:19:46;101043.09;;;15.10;51.17
12073;BME280;6098;49.004;8.372;2023-05-18T09:34:43;101037.32;;;15.47;49.81
12073;BME280;6098;49.004;8.372;2023-05-18T09:49:34;101031.13;;;15.91;48.68
12073;BME280;6098;49.004;8.372;2023-05-18T10:04:38;101028.29;;;16.19;46.56
12073;BME280;6098;49.004;8.372;2023-05-18T10:19:35;101014.84;;;16.63;44.55
12073;BME280;6098;49.004;8.372;2023-05-18T10:34:31;101011.88;;;17.09;42.92
12073;BME280;6098;49.004;8.372;2023-05-18T10:49:25;101000.12;;;17.27;42.29
12073;BME280;6098;49.004;8.372;2023-05-18T11:04:22;100988.62;;;17.79;40.71
12073;BME280;6098;49.004;8.372;2023-05-18T11:19:18;100978.47;;;18.43;40.23
12073;BME280;6098;49.004;8.372;2023-05-18T11:34:40;100983.05;;;18.63;39.95
12073;BME280;6098;49.004;8.372;2023-05-18T11:49:41;100975.30;;;18.86;39.10
12073;BME280;6098;49.004;8.372;2023-05-18T12:04:30;100967.47;;;19.31;37.60
12073;BME280;6098;49.004;8.372;2023-05-18T12:19:23;100966.76;;;19.48;37.61
12073;BME280;6098;49.004;8.372;2023-05-18T12:34:17;100938.89;;;19.82;36.43
12073;BME280;6098;49.004;8.372;2023-05-18T12:49:09;100929.04;;;20.02;35.32
12073;BME280;6098;49.004;8.372;2023-05-18T13:04:08;100914.86;;;20.32;35.07
12073;BME280;6098;49.004;8.372;2023-05-18T13:18:58;100911.81;;;20.98;34.44
12073;BME280;6098;49.004;8.372;2023-05-18T13:33:50;100899.80;;;21.21;33.26
12073;BME280;6098;49.004;8.372;2023-05-18T13:48:42;100896.16;;;21.51;32.21
12073;BME280;6098;49.004;8.372;2023-05-18T14:03:35;100873.72;;;21.56;32.90
12073;BME280;6098;49.004;8.372;2023-05-18T14:12:37;100873.33;;;22.30;32.64
12073;BME280;6098;49.004;8.372;2023-05-18T14:15:04;100862.44;;;22.36;31.55
12073;BME280;6098;49.004;8.372;2023-05-18T14:29:29;100859.64;;;22.98;29.61
12073;BME280;6098;49.004;8.372;2023-05-18T14:44:21;100849.08;;;23.21;29.53
12073;BME280;6098;49.004;8.372;2023-05-18T14:59:15;100837.64;;;23.86;29.46
12073;BME280;6098;49.004;8.372;2023-05-18T15:14:06;100830.77;;;23.82;29.09
12073;BME280;6098;49.004;8.372;2023-05-18T15:29:00;100817.98;;;24.20;28.00
12073;BME280;6098;49.004;8.372;2023-05-18T15:43:56;100821.86;;;24.67;27.61
12073;BME280;6098;49.004;8.372;2023-05-18T15:58:48;100810.71;;;24.36;27.92
12073;BME280;6098;49.004;8.372;2023-05-18T16:13:43;100812.33;;;23.71;28.82
12073;BME280;6098;49.004;8.372;2023-05-18T16:28:25;100812.47;;;22.14;30.22
12073;BME280;6098;49.004;8.372;2023-05-18T16:43:15;100810.90;;;21.43;31.06
12073;BME280;6098;49.004;8.372;2023-05-18T16:58:05;100813.52;;;20.91;31.77
12073;BME280;6098;49.004;8.372;2023-05-18T17:12:56;100822.38;;;20.44;31.85
12073;BME280;6098;49.004;8.372;2023-05-18T17:27:47;100815.43;;;20.23;32.33
12073;BME280;6098;49.004;8.372;2023-05-18T17:42:39;100812.75;;;21.53;32.44
12073;BME280;6098;49.004;8.372;2023-05-18T17:57:36;100807.92;;;20.76;32.62
12073;BME280;6098;49.004;8.372;2023-05-18T18:12:25;100817.73;;;19.78;34.35
12073;BME280;6098;49.004;8.372;2023-05-18T18:42:21;100833.38;;;18.79;36.89
12073;BME280;6098;49.004;8.372;2023-05-18T18:57:12;100851.48;;;18.41;37.63
12073;BME280;6098;49.004;8.372;2023-05-18T19:12:04;100859.02;;;18.07;38.98
12073;BME280;6098;49.004;8.372;2023-05-18T19:26:57;100872.06;;;17.78;39.80
12073;BME280;6098;49.004;8.372;2023-05-18T19:41:48;100885.33;;;17.42;40.05
12073;BME280;6098;49.004;8.372;2023-05-18T19:56:39;100889.58;;;17.16;40.93
12073;BME280;6098;49.004;8.372;2023-05-18T20:11:29;100892.91;;;16.89;41.76
12073;BME280;6098;49.004;8.372;2023-05-18T20:26:22;100894.41;;;16.63;42.05
12073;BME280;6098;49.004;8.372;2023-05-18T20:41:12;100904.36;;;16.36;42.75
12073;BME280;6098;49.004;8.372;2023-05-18T20:56:04;100909.70;;;16.12;43.55
12073;BME280;6098;49.004;8.372;2023-05-18T21:10:55;100911.70;;;15.82;44.58
12073;BME280;6098;49.004;8.372;2023-05-18T21:25:46;100913.18;;;15.62;45.58
12073;BME280;6098;49.004;8.372;2023-05-18T21:40:36;100910.14;;;15.44;46.72
12073;BME280;6098;49.004;8.372;2023-05-18T21:55:28;100917.05;;;15.20;47.90
12073;BME280;6098;49.004;8.372;2023-05-18T22:10:21;100921.53;;;15.11;48.60
12073;BME280;6098;49.004;8.372;2023-05-18T22:25:12;100919.22;;;14.95;49.59
12073;BME280;6098;49.004;8.372;2023-05-18T22:40:04;100904.66;;;14.74;50.15
12073;BME280;6098;49.004;8.372;2023-05-18T22:54:58;100904.48;;;14.50;51.11
12073;BME280;6098;49.004;8.372;2023-05-18T23:09:48;100908.88;;;14.21;52.09
12073;BME280;6098;49.004;8.372;2023-05-18T23:24:43;100912.78;;;14.03;53.08
12073;BME280;6098;49.004;8.372;2023-05-18T23:39:33;100909.48;;;13.98;53.61
12073;BME280;6098;49.004;8.372;2023-05-18T23:54:24;100906.55;;;13.74;54.65
